createdAt,value
2022-12-03T00:01:21.320Z,102491.50
2022-12-03T00:03:48.972Z,102484.53
2022-12-03T00:08:45.677Z,102471.69
2022-12-03T00:11:13.182Z,102476.31
2022-12-03T00:13:40.720Z,102475.03
2022-12-03T00:16:08.581Z,102462.41
2022-12-03T00:18:36.107Z,102478.06
2022-12-03T00:21:03.600Z,102482.28
2022-12-03T00:23:31.099Z,102493.97
2022-12-03T00:25:58.614Z,102482.66
2022-12-03T00:28:26.137Z,102482.66
2022-12-03T00:30:54.390Z,102471.84
2022-12-03T00:33:23.010Z,102465.41
2022-12-03T00:35:50.626Z,102466.47
2022-12-03T00:38:18.222Z,102454.88
2022-12-03T00:40:45.805Z,102461.78
2022-12-03T00:43:13.343Z,102470.63
2022-12-03T00:45:40.778Z,102468.50
2022-12-03T00:48:08.325Z,102465.84
2022-12-03T00:50:35.836Z,102438.97
2022-12-03T00:53:03.401Z,102457.34
2022-12-03T00:55:30.883Z,102456.22
2022-12-03T00:57:58.382Z,102450.47
2022-12-03T01:00:26.093Z,102453.81
2022-12-03T01:02:54.208Z,102453.28
2022-12-03T01:05:22.155Z,102449.56
2022-12-03T01:07:49.652Z,102446.75
2022-12-03T01:10:17.255Z,102449.47
2022-12-03T01:12:44.792Z,102448.88
2022-12-03T01:15:12.725Z,102441.78
2022-12-03T01:17:40.214Z,102436.75
2022-12-03T01:20:10.099Z,102430.81
2022-12-03T01:22:38.012Z,102428.09
2022-12-03T01:25:05.916Z,102431.91
2022-12-03T01:27:33.488Z,102426.59
2022-12-03T01:30:00.997Z,102426.16
2022-12-03T01:32:27.587Z,102436.75
2022-12-03T01:34:56.863Z,102428.53
2022-12-03T01:37:26.395Z,102432.69
2022-12-03T01:39:54.472Z,102441.06
2022-12-03T01:42:27.599Z,102441.25
2022-12-03T01:44:58.438Z,102425.88
2022-12-03T01:47:31.296Z,102429.75
2022-12-03T01:50:07.012Z,102429.06
2022-12-03T01:52:39.522Z,102431.81
2022-12-03T01:55:17.511Z,102432.75
2022-12-03T01:57:48.610Z,102428.88
2022-12-03T02:00:22.715Z,102437.56
2022-12-03T02:02:54.056Z,102429.41
2022-12-03T02:05:27.247Z,102436.66
2022-12-03T02:07:55.437Z,102431.19
2022-12-03T02:10:33.394Z,102431.19
2022-12-03T02:13:05.083Z,102432.25
2022-12-03T02:15:32.813Z,102428.16
2022-12-03T02:18:00.870Z,102432.31
2022-12-03T02:20:28.659Z,102418.63
2022-12-03T02:23:09.808Z,102431.69
2022-12-03T02:25:37.920Z,102425.88
2022-12-03T02:28:07.089Z,102428.00
2022-12-03T02:30:35.381Z,102429.41
2022-12-03T02:33:03.572Z,102426.06
2022-12-03T02:35:36.215Z,102429.94
2022-12-03T02:38:14.358Z,102426.22
2022-12-03T02:40:43.007Z,102425.69
2022-12-03T02:43:11.350Z,102417.00
2022-12-03T02:45:51.996Z,102421.63
2022-12-03T02:48:24.441Z,102421.78
2022-12-03T02:50:53.463Z,102420.91
2022-12-03T02:53:27.689Z,102424.81
2022-12-03T02:55:57.945Z,102418.53
2022-12-03T02:58:27.108Z,102417.00
2022-12-03T03:00:55.774Z,102422.88
2022-12-03T03:03:25.687Z,102414.53
2022-12-03T03:05:53.619Z,102409.91
2022-12-03T03:08:21.240Z,102417.28
2022-12-03T03:10:49.098Z,102415.34
2022-12-03T03:13:19.420Z,102409.59
2022-12-03T03:15:47.474Z,102409.59
2022-12-03T03:18:16.665Z,102401.09
2022-12-03T03:20:45.185Z,102405.88
2022-12-03T03:23:12.675Z,102406.56
2022-12-03T03:25:41.654Z,102399.50
2022-12-03T03:28:09.302Z,102394.38
2022-12-03T03:30:38.261Z,102389.94
2022-12-03T03:33:06.196Z,102392.94
2022-12-03T03:35:33.868Z,102389.56
2022-12-03T03:38:01.437Z,102377.88
2022-12-03T03:40:29.337Z,102391.22
2022-12-03T03:42:57.681Z,102390.47
2022-12-03T03:45:29.164Z,102388.81
2022-12-03T03:47:58.554Z,102383.66
2022-12-03T03:50:27.720Z,102370.69
2022-12-03T03:52:56.663Z,102380.66
2022-12-03T03:55:24.529Z,102376.56
2022-12-03T03:57:52.214Z,102393.25
2022-12-03T04:00:20.209Z,102366.03
2022-12-03T04:02:47.928Z,102376.28
2022-12-03T04:05:22.356Z,102383.53
2022-12-03T04:07:49.903Z,102369.53
2022-12-03T04:10:31.646Z,102373.09
2022-12-03T04:12:59.253Z,102367.34
2022-12-03T04:15:27.838Z,102366.53
2022-12-03T04:18:09.249Z,102358.84
2022-12-03T04:20:37.102Z,102364.75
2022-12-03T04:23:04.138Z,102361.38
2022-12-03T04:25:48.237Z,102359.38
2022-12-03T04:28:33.101Z,102354.66
2022-12-03T04:31:00.759Z,102355.97
2022-12-03T04:33:45.768Z,102346.50
2022-12-03T04:36:13.254Z,102348.44
2022-12-03T04:38:40.764Z,102355.88
2022-12-03T04:41:08.237Z,102354.81
2022-12-03T04:43:56.062Z,102347.00
2022-12-03T04:46:23.629Z,102351.31
2022-12-03T04:48:51.189Z,102341.69
2022-12-03T04:51:18.625Z,102342.78
2022-12-03T04:53:46.486Z,102347.59
2022-12-03T04:56:14.137Z,102350.28
2022-12-03T04:58:41.639Z,102346.13
2022-12-03T05:01:09.153Z,102344.22
2022-12-03T05:03:36.674Z,102338.44
2022-12-03T05:06:04.201Z,102347.59
2022-12-03T05:08:31.700Z,102345.16
2022-12-03T05:10:59.182Z,102350.94
2022-12-03T05:13:26.646Z,102340.53
2022-12-03T05:15:54.180Z,102333.97
2022-12-03T05:18:21.624Z,102336.06
2022-12-03T05:20:53.195Z,102336.94
2022-12-03T05:23:21.427Z,102333.97
2022-12-03T05:25:48.974Z,102333.41
2022-12-03T05:28:16.583Z,102340.84
2022-12-03T05:30:44.088Z,102337.28
2022-12-03T05:33:11.759Z,102331.97
2022-12-03T05:35:54.282Z,102332.34
2022-12-03T05:38:21.752Z,102326.09
2022-12-03T05:40:49.289Z,102326.09
2022-12-03T05:43:15.912Z,102328.03
2022-12-03T05:45:45.319Z,102324.19
2022-12-03T05:48:16.444Z,102325.28
2022-12-03T05:50:47.140Z,102324.91
2022-12-03T05:53:18.505Z,102316.94
2022-12-03T05:55:47.595Z,102315.59
2022-12-03T05:58:15.144Z,102317.09
2022-12-03T06:00:43.174Z,102321.94
2022-12-03T06:03:11.354Z,102309.88
2022-12-03T06:05:39.081Z,102312.63
2022-12-03T06:08:06.696Z,102310.84
2022-12-03T06:10:34.287Z,102300.03
2022-12-03T06:13:03.161Z,102299.63
2022-12-03T06:15:30.756Z,102318.72
2022-12-03T06:17:58.346Z,102303.06
2022-12-03T06:20:25.954Z,102302.03
2022-12-03T06:22:53.509Z,102311.56
2022-12-03T06:25:21.040Z,102310.94
2022-12-03T06:27:48.566Z,102298.97
2022-12-03T06:30:16.354Z,102296.09
2022-12-03T06:32:43.849Z,102297.03
2022-12-03T06:35:11.461Z,102296.28
2022-12-03T06:37:39.002Z,102306.53
2022-12-03T06:40:07.262Z,102293.69
2022-12-03T06:42:34.740Z,102302.34
2022-12-03T06:45:02.203Z,102307.91
2022-12-03T06:47:30.209Z,102287.94
2022-12-03T06:49:57.736Z,102288.88
2022-12-03T06:52:25.284Z,102294.34
2022-12-03T06:54:53.066Z,102285.50
2022-12-03T06:57:20.723Z,102291.34
2022-12-03T06:59:48.216Z,102297.69
2022-12-03T07:02:15.729Z,102297.03
2022-12-03T07:04:46.208Z,102297.03
2022-12-03T07:07:14.445Z,102295.75
2022-12-03T07:09:41.911Z,102296.88
2022-12-03T07:12:09.406Z,102296.25
2022-12-03T07:14:36.906Z,102306.34
2022-12-03T07:17:04.545Z,102298.09
2022-12-03T07:19:33.007Z,102302.69
2022-12-03T07:22:00.857Z,102306.66
2022-12-03T07:24:28.834Z,102312.59
2022-12-03T07:26:56.688Z,102310.13
2022-12-03T07:29:24.433Z,102308.13
2022-12-03T07:31:52.126Z,102316.91
2022-12-03T07:34:19.715Z,102314.22
2022-12-03T07:36:47.304Z,102310.84
2022-12-03T07:39:15.074Z,102312.78
2022-12-03T07:41:42.639Z,102317.91
2022-12-03T07:44:14.206Z,102304.09
2022-12-03T07:46:43.945Z,102317.09
2022-12-03T07:49:13.199Z,102307.47
2022-12-03T07:51:43.135Z,102305.53
2022-12-03T07:54:10.712Z,102298.47
2022-12-03T07:56:38.241Z,102298.66
2022-12-03T07:59:05.697Z,102298.59
2022-12-03T08:01:33.357Z,102303.00
2022-12-03T08:04:00.836Z,102298.09
2022-12-03T08:06:28.388Z,102292.00
2022-12-03T08:08:55.917Z,102312.22
2022-12-03T08:11:23.446Z,102309.22
2022-12-03T08:13:51.148Z,102298.84
2022-12-03T08:16:21.617Z,102308.13
2022-12-03T08:18:50.669Z,102301.84
2022-12-03T08:21:21.032Z,102301.19
2022-12-03T08:23:48.841Z,102303.09
2022-12-03T08:26:29.118Z,102300.78
2022-12-03T08:28:56.704Z,102289.81
2022-12-03T08:31:33.456Z,102297.97
2022-12-03T08:34:22.878Z,102281.91
2022-12-03T08:37:02.343Z,102295.09
2022-12-03T08:39:33.348Z,102303.25
2022-12-03T08:42:31.351Z,102297.44
2022-12-03T08:45:21.165Z,102298.38
2022-12-03T08:47:48.702Z,102290.56
2022-12-03T08:50:29.812Z,102296.31
2022-12-03T08:53:23.517Z,102297.81
2022-12-03T08:55:56.018Z,102255.19
2022-12-03T08:58:26.441Z,102286.88
2022-12-03T09:01:16.386Z,102292.00
2022-12-03T09:03:52.112Z,102284.31
2022-12-03T09:06:19.675Z,102289.22
2022-12-03T09:08:47.200Z,102279.41
2022-12-03T09:11:15.853Z,102281.81
2022-12-03T09:13:43.401Z,102273.91
2022-12-03T09:16:10.978Z,102274.00
2022-12-03T09:18:38.529Z,102283.19
2022-12-03T09:21:06.256Z,102274.69
2022-12-03T09:23:33.841Z,102269.56
2022-12-03T09:26:01.338Z,102274.50
2022-12-03T09:28:28.904Z,102276.78
2022-12-03T09:30:56.381Z,102276.44
2022-12-03T09:33:23.912Z,102276.13
2022-12-03T09:35:51.479Z,102271.31
2022-12-03T09:38:19.030Z,102277.69
2022-12-03T09:40:46.759Z,102274.50
2022-12-03T09:43:14.455Z,102272.91
2022-12-03T09:45:42.211Z,102276.53
2022-12-03T09:48:09.745Z,102276.44
2022-12-03T09:50:42.268Z,102279.50
2022-12-03T09:53:14.336Z,102279.03
2022-12-03T09:55:43.600Z,102281.75
2022-12-03T09:58:13.363Z,102282.81
2022-12-03T10:00:42.791Z,102282.69
2022-12-03T10:03:15.025Z,102279.44
2022-12-03T10:05:47.941Z,102278.06
2022-12-03T10:08:21.075Z,102277.66
2022-12-03T10:10:51.581Z,102282.06
2022-12-03T10:13:29.749Z,102290.50
2022-12-03T10:15:59.639Z,102284.94
2022-12-03T10:18:31.585Z,102289.09
2022-12-03T10:21:00.211Z,102285.25
2022-12-03T10:23:30.823Z,102285.25
2022-12-03T10:26:03.135Z,102277.69
2022-12-03T10:28:33.054Z,102281.56
2022-12-03T10:31:02.819Z,102278.47
2022-12-03T10:33:33.995Z,102267.88
2022-12-03T10:36:28.077Z,102273.09
2022-12-03T10:39:14.478Z,102273.25
2022-12-03T10:41:44.604Z,102260.56
2022-12-03T10:44:15.868Z,102258.16
2022-12-03T10:46:44.905Z,102248.50
2022-12-03T10:49:21.228Z,102251.28
2022-12-03T10:51:50.101Z,102234.38
2022-12-03T10:54:22.579Z,102236.84
2022-12-03T10:56:51.701Z,102245.56
2022-12-03T10:59:25.587Z,102244.50
2022-12-03T11:01:54.090Z,102252.81
2022-12-03T11:04:31.658Z,102231.78
2022-12-03T11:07:00.456Z,102241.34
2022-12-03T11:09:32.435Z,102234.63
2022-12-03T11:12:07.852Z,102230.03
2022-12-03T11:14:50.713Z,102232.84
2022-12-03T11:17:44.035Z,102234.09
2022-12-03T11:20:37.083Z,102221.91
2022-12-03T11:23:04.633Z,102225.25
2022-12-03T11:25:47.881Z,102205.13
2022-12-03T11:28:15.329Z,102214.69
2022-12-03T11:30:51.805Z,102208.41
2022-12-03T11:33:27.049Z,102213.72
2022-12-03T11:36:06.719Z,102212.00
2022-12-03T11:38:54.216Z,102207.94
2022-12-03T11:41:36.090Z,102201.78
2022-12-03T11:44:25.966Z,102191.94
2022-12-03T11:46:54.160Z,102199.63
2022-12-03T11:49:34.494Z,102180.22
2022-12-03T11:52:05.558Z,102192.47
2022-12-03T11:54:36.143Z,102189.91
2022-12-03T11:57:04.117Z,102190.63
2022-12-03T11:59:32.176Z,102187.97
2022-12-03T12:01:59.702Z,102196.19
2022-12-03T12:04:33.848Z,102188.28
2022-12-03T12:07:03.968Z,102178.66
2022-12-03T12:09:54.813Z,102180.59
2022-12-03T12:12:40.952Z,102176.53
2022-12-03T12:15:56.887Z,102186.50
2022-12-03T12:18:39.128Z,102157.19
2022-12-03T12:21:44.356Z,102172.28
2022-12-03T12:24:31.886Z,102166.09
2022-12-03T12:27:05.519Z,102163.84
2022-12-03T12:29:33.357Z,102156.72
2022-12-03T12:32:07.725Z,102146.97
2022-12-03T12:34:38.148Z,102149.28
2022-12-03T12:37:10.963Z,102150.06
2022-12-03T12:39:38.779Z,102146.56
2022-12-03T12:42:28.994Z,102144.91
2022-12-03T12:45:02.166Z,102136.88
2022-12-03T12:47:31.071Z,102133.78
2022-12-03T12:49:59.762Z,102136.06
2022-12-03T12:52:28.865Z,102141.72
2022-12-03T12:54:59.082Z,102136.09
2022-12-03T12:57:30.670Z,102140.47
2022-12-03T12:59:58.269Z,102135.91
2022-12-03T13:02:31.959Z,102135.06
2022-12-03T13:05:04.193Z,102138.84
2022-12-03T13:07:32.863Z,102142.34
2022-12-03T13:10:14.839Z,102132.38
2022-12-03T13:12:42.527Z,102125.22
2022-12-03T13:15:36.162Z,102130.75
2022-12-03T13:18:21.457Z,102130.53
2022-12-03T13:20:49.319Z,102131.13
2022-12-03T13:23:31.359Z,102127.06
2022-12-03T13:26:12.907Z,102137.13
2022-12-03T13:28:46.152Z,102125.66
2022-12-03T13:31:22.425Z,102114.88
2022-12-03T13:33:50.932Z,102126.25
2022-12-03T13:36:21.120Z,102119.44
2022-12-03T13:38:49.155Z,102109.75
2022-12-03T13:41:37.940Z,102117.22
2022-12-03T13:44:19.041Z,102100.16
2022-12-03T13:46:47.322Z,102102.75
2022-12-03T13:49:19.963Z,102098.44
2022-12-03T13:51:48.280Z,102099.88
2022-12-03T13:54:24.629Z,102095.75
2022-12-03T13:56:52.400Z,102101.41
2022-12-03T13:59:25.751Z,102096.69
2022-12-03T14:01:53.978Z,102089.63
2022-12-03T14:04:21.637Z,102099.03
2022-12-03T14:06:49.169Z,102098.25
2022-12-03T14:09:16.734Z,102102.38
2022-12-03T14:12:01.801Z,102095.03
2022-12-03T14:14:29.275Z,102087.97
2022-12-03T14:16:59.830Z,102079.97
2022-12-03T14:19:27.800Z,102074.66
2022-12-03T14:21:55.333Z,102084.19
2022-12-03T14:24:23.008Z,102085.63
2022-12-03T14:26:50.468Z,102082.97
2022-12-03T14:29:18.087Z,102075.72
2022-12-03T14:31:48.597Z,102078.09
2022-12-03T14:34:18.124Z,102074.66
2022-12-03T14:36:45.709Z,102079.72
2022-12-03T14:39:13.300Z,102078.03
2022-12-03T14:41:58.804Z,102072.19
2022-12-03T14:44:26.276Z,102081.22
2022-12-03T14:46:57.070Z,102083.53
2022-12-03T14:49:25.172Z,102073.81
2022-12-03T14:51:52.810Z,102076.09
2022-12-03T14:54:21.245Z,102079.28
2022-12-03T14:56:48.889Z,102080.50
2022-12-03T14:59:16.511Z,102085.09
2022-12-03T15:01:44.226Z,102085.28
2022-12-03T15:04:11.763Z,102086.53
2022-12-03T15:06:39.311Z,102082.44
2022-12-03T15:09:07.115Z,102086.34
2022-12-03T15:11:34.943Z,102078.03
2022-12-03T15:14:02.501Z,102053.19
2022-12-03T15:16:30.101Z,102097.91
2022-12-03T15:18:57.719Z,102080.34
2022-12-03T15:21:25.270Z,102094.28
2022-12-03T15:23:52.883Z,102095.53
2022-12-03T15:26:20.457Z,102088.16
2022-12-03T15:28:48.569Z,102087.31
2022-12-03T15:31:16.313Z,102086.69
2022-12-03T15:33:43.855Z,102078.91
2022-12-03T15:36:11.375Z,102085.16
2022-12-03T15:38:38.917Z,102079.63
2022-12-03T15:44:29.665Z,102092.97
2022-12-03T15:46:57.433Z,102078.75
2022-12-03T15:49:24.977Z,102081.72
2022-12-03T15:51:52.570Z,102084.84
2022-12-03T15:54:20.124Z,102084.03
2022-12-03T15:56:50.483Z,102073.44
2022-12-03T15:59:20.285Z,102080.06
2022-12-03T16:01:47.935Z,102083.69
2022-12-03T16:04:15.420Z,102076.09
2022-12-03T16:06:42.883Z,102084.03
2022-12-03T16:09:10.434Z,102077.03
2022-12-03T16:11:37.979Z,102076.97
2022-12-03T16:14:05.514Z,102082.19
2022-12-03T16:16:33.114Z,102085.34
2022-12-03T16:19:00.774Z,102081.03
2022-12-03T16:21:28.969Z,102081.03
2022-12-03T16:23:56.912Z,102080.69
2022-12-03T16:26:24.475Z,102053.59
2022-12-03T16:28:52.038Z,102067.47
2022-12-03T16:31:20.071Z,102069.47
2022-12-03T16:33:47.994Z,102070.09
2022-12-03T16:36:16.516Z,102061.44
2022-12-03T16:38:44.182Z,102063.13
2022-12-03T16:41:11.758Z,102049.63
2022-12-03T16:43:39.518Z,102055.81
2022-12-03T16:46:26.095Z,102051.75
2022-12-03T16:48:56.456Z,102047.34
2022-12-03T16:51:24.016Z,102049.56
2022-12-03T16:53:51.917Z,102049.63
2022-12-03T16:56:20.053Z,102055.13
2022-12-03T16:58:48.020Z,102056.44
2022-12-03T17:01:15.566Z,102054.94
2022-12-03T17:03:43.277Z,102059.31
2022-12-03T17:06:10.879Z,102056.50
2022-12-03T17:08:38.449Z,102061.78
2022-12-03T17:11:06.178Z,102062.34
2022-12-03T17:13:33.714Z,102057.56
2022-12-03T17:16:01.817Z,102068.31
2022-12-03T17:18:29.358Z,102060.75
2022-12-03T17:20:56.864Z,102071.50
2022-12-03T17:23:24.386Z,102064.81
2022-12-03T17:25:51.880Z,102067.81
2022-12-03T17:28:19.505Z,102066.66
2022-12-03T17:30:47.103Z,102067.72
2022-12-03T17:33:14.807Z,102066.56
2022-12-03T17:35:43.349Z,102066.38
2022-12-03T17:38:11.219Z,102069.22
2022-12-03T17:40:38.880Z,102070.66
2022-12-03T17:43:06.429Z,102069.28
2022-12-03T17:45:34.021Z,102065.69
2022-12-03T17:48:01.630Z,102068.88
2022-12-03T17:50:29.151Z,102070.81
2022-12-03T17:52:56.684Z,102062.19
2022-12-03T17:55:35.966Z,102064.28
2022-12-03T17:58:07.165Z,102071.69
2022-12-03T18:00:35.251Z,102069.56
2022-12-03T18:03:02.788Z,102065.34
2022-12-03T18:05:30.328Z,102048.56
2022-12-03T18:07:58.186Z,102055.88
2022-12-03T18:10:25.715Z,102056.50
2022-12-03T18:12:56.966Z,102049.72
2022-12-03T18:15:27.473Z,102048.06
2022-12-03T18:17:54.978Z,102048.41
2022-12-03T18:20:22.575Z,102041.00
2022-12-03T18:22:50.173Z,102048.84
2022-12-03T18:25:18.105Z,102044.50
2022-12-03T18:27:47.112Z,102016.47
2022-12-03T18:30:14.785Z,102046.28
2022-12-03T18:32:42.373Z,102046.66
2022-12-03T18:35:10.357Z,102033.75
2022-12-03T18:37:38.418Z,102046.47
2022-12-03T18:40:13.231Z,102038.78
2022-12-03T18:42:41.068Z,102033.66
2022-12-03T18:45:13.139Z,102030.22
2022-12-03T18:47:40.710Z,102023.72
2022-12-03T18:50:09.461Z,102024.34
2022-12-03T18:52:37.086Z,102019.84
2022-12-03T18:55:06.079Z,102012.41
2022-12-03T18:57:33.577Z,102021.94
2022-12-03T19:00:01.229Z,102032.00
2022-12-03T19:05:16.655Z,102030.41
2022-12-03T19:07:44.292Z,102027.22
2022-12-03T19:10:13.055Z,102033.41
2022-12-03T19:12:40.629Z,102033.59
2022-12-03T19:15:08.882Z,102036.22
2022-12-03T19:17:39.634Z,102032.88
2022-12-03T19:20:12.214Z,102024.25
2022-12-03T19:22:39.627Z,102033.25
2022-12-03T19:25:07.421Z,102028.84
2022-12-03T19:27:35.003Z,102031.91
2022-12-03T19:30:02.613Z,102029.78
2022-12-03T19:32:30.205Z,102028.56
2022-12-03T19:34:57.878Z,102035.34
2022-12-03T19:37:25.407Z,102016.47
2022-12-03T19:39:55.894Z,102032.34
2022-12-03T19:42:23.650Z,102013.81
2022-12-03T19:44:51.156Z,102020.16
2022-12-03T19:47:18.649Z,102023.44
2022-12-03T19:49:46.134Z,102024.59
2022-12-03T19:52:13.637Z,102019.47
2022-12-03T19:54:41.153Z,102018.13
2022-12-03T19:57:08.908Z,102016.28
2022-12-03T19:59:36.450Z,102019.38
2022-12-03T20:02:04.140Z,102018.50
2022-12-03T20:04:31.794Z,102016.66
2022-12-03T20:06:59.360Z,102017.97
2022-12-03T20:09:26.911Z,102014.91
2022-12-03T20:11:54.414Z,102013.31
2022-12-03T20:14:21.988Z,102020.53
2022-12-03T20:16:49.614Z,102008.38
2022-12-03T20:19:18.864Z,102019.75
2022-12-03T20:21:46.419Z,102005.25
2022-12-03T20:24:16.405Z,102011.44
2022-12-03T20:26:44.643Z,102009.63
2022-12-03T20:29:12.298Z,102003.41
2022-12-03T20:31:40.049Z,102005.16
2022-12-03T20:34:07.661Z,102001.13
2022-12-03T20:36:35.435Z,101997.97
2022-12-03T20:39:08.931Z,102003.88
2022-12-03T20:41:37.645Z,101995.31
2022-12-03T20:44:07.830Z,102001.31
2022-12-03T20:46:36.210Z,101997.44
2022-12-03T20:49:04.126Z,101989.50
2022-12-03T20:51:32.100Z,101992.75
2022-12-03T20:54:01.159Z,101985.28
2022-12-03T20:56:31.523Z,101987.97
2022-12-03T20:59:06.022Z,101987.91
2022-12-03T21:01:34.336Z,101991.69
2022-12-03T21:04:03.036Z,101992.31
2022-12-03T21:06:30.942Z,101975.03
2022-12-03T21:09:00.682Z,101981.53
2022-12-03T21:11:30.803Z,101964.69
2022-12-03T21:13:59.592Z,101969.56
2022-12-03T21:17:06.518Z,101964.81
2022-12-03T21:19:21.835Z,101974.56
2022-12-03T21:21:49.794Z,101968.75
2022-12-03T21:24:17.424Z,101967.63
2022-12-03T21:26:47.546Z,101966.38
2022-12-03T21:29:15.508Z,101971.50
2022-12-03T21:31:43.329Z,101974.06
2022-12-03T21:34:10.940Z,101977.22
2022-12-03T21:36:39.624Z,101972.94
2022-12-03T21:39:08.895Z,101962.84
2022-12-03T21:41:36.524Z,101976.81
2022-12-03T21:44:07.018Z,101973.25
2022-12-03T21:47:12.408Z,101972.13
2022-12-03T21:49:23.148Z,101972.22
2022-12-03T21:51:50.714Z,101976.53
2022-12-03T21:54:18.511Z,101977.66
2022-12-03T21:56:46.065Z,101972.56
2022-12-03T21:59:13.651Z,101974.88
2022-12-03T22:01:45.690Z,101979.88
2022-12-03T22:04:14.742Z,101969.56
2022-12-03T22:06:44.584Z,101956.06
2022-12-03T22:09:12.117Z,101954.47
2022-12-03T22:11:39.769Z,101946.81
2022-12-03T22:14:08.521Z,101947.41
2022-12-03T22:16:36.114Z,101953.16
2022-12-03T22:19:03.803Z,101960.22
2022-12-03T22:21:31.556Z,101963.22
2022-12-03T22:23:59.244Z,101946.91
2022-12-03T22:26:26.770Z,101953.16
2022-12-03T22:28:54.289Z,101926.97
2022-12-03T22:31:21.861Z,101958.63
2022-12-03T22:33:49.714Z,101962.69
2022-12-03T22:36:21.602Z,101962.94
2022-12-03T22:38:50.825Z,101964.09
2022-12-03T22:41:19.048Z,101963.38
2022-12-03T22:43:47.886Z,101971.31
2022-12-03T22:46:16.462Z,101972.03
2022-12-03T22:48:46.018Z,101933.75
2022-12-03T22:51:16.306Z,101961.38
2022-12-03T22:53:43.809Z,101973.16
2022-12-03T22:56:11.287Z,101964.88
2022-12-03T22:58:40.355Z,101955.97
2022-12-03T23:01:08.846Z,101949.91
2022-12-03T23:03:37.551Z,101958.09
2022-12-03T23:06:12.790Z,101940.63
2022-12-03T23:08:40.651Z,101939.25
2022-12-03T23:11:08.398Z,101940.47
2022-12-03T23:13:36.272Z,101908.94
2022-12-03T23:16:04.158Z,101931.72
2022-12-03T23:18:32.460Z,101937.38
2022-12-03T23:21:00.132Z,101935.34
2022-12-03T23:23:28.768Z,101942.59
2022-12-03T23:26:00.701Z,101942.56
2022-12-03T23:28:29.977Z,101947.88
2022-12-03T23:30:57.890Z,101939.84
2022-12-03T23:33:26.314Z,101942.06
2022-12-03T23:35:53.883Z,101945.56
2022-12-03T23:38:21.799Z,101942.56
2022-12-03T23:40:49.340Z,101947.34
2022-12-03T23:43:17.385Z,101934.47
2022-12-03T23:45:44.874Z,101938.34
2022-12-03T23:48:12.898Z,101939.25
2022-12-03T23:50:41.279Z,101940.47
2022-12-03T23:53:09.026Z,101938.09
2022-12-03T23:55:40.841Z,101941.72
2022-12-03T23:58:08.386Z,101937.03
